sensor_id;sensor_type;location;lat;lon;timestamp;P1;durP1;ratioP1;P2;durP2;ratioP2
80227;SDS011;69539;42.138;24.742;2023-05-17T13:27:06;200.63;;;136.50;;
80227;SDS011;69539;42.138;24.742;2023-05-17T13:29:33;273.70;;;211.20;;
80227;SDS011;69539;42.138;24.742;2023-05-17T13:32:01;1015.30;;;769.38;;
80227;SDS011;69539;42.138;24.742;2023-05-17T13:34:27;911.72;;;759.85;;
80227;SDS011;69539;42.138;24.742;2023-05-17T13:36:53;671.40;;;580.58;;
80227;SDS011;69539;42.138;24.742;2023-05-17T13:39:21;507.35;;;420.40;;
80227;SDS011;69539;42.138;24.742;2023-05-17T13:41:47;125.05;;;96.03;;
80227;SDS011;69539;42.138;24.742;2023-05-17T13:44:13;44.80;;;37.00;;
80227;SDS011;69539;42.138;24.742;2023-05-17T13:46:38;25.23;;;22.13;;
80227;SDS011;69539;42.138;24.742;2023-05-17T13:49:04;22.02;;;19.23;;
80227;SDS011;69539;42.138;24.742;2023-05-17T13:51:32;162.02;;;125.43;;
80227;SDS011;69539;42.138;24.742;2023-05-17T13:54:06;152.63;;;119.15;;
80227;SDS011;69539;42.138;24.742;2023-05-17T13:56:33;110.65;;;80.60;;
80227;SDS011;69539;42.138;24.742;2023-05-17T13:58:59;43.65;;;36.05;;
80227;SDS011;69539;42.138;24.742;2023-05-17T14:01:25;22.55;;;20.05;;
80227;SDS011;69539;42.138;24.742;2023-05-17T14:03:51;17.33;;;15.27;;
80227;SDS011;69539;42.138;24.742;2023-05-17T14:06:18;18.38;;;15.70;;
80227;SDS011;69539;42.138;24.742;2023-05-17T14:08:44;19.33;;;15.80;;
80227;SDS011;69539;42.138;24.742;2023-05-17T14:11:10;18.73;;;15.50;;
80227;SDS011;69539;42.138;24.742;2023-05-17T14:13:36;17.80;;;15.25;;
80227;SDS011;69539;42.138;24.742;2023-05-17T14:16:02;18.10;;;16.17;;
80227;SDS011;69539;42.138;24.742;2023-05-17T14:18:27;20.40;;;15.60;;
80227;SDS011;69539;42.138;24.742;2023-05-17T14:20:55;17.35;;;15.43;;
80227;SDS011;69539;42.138;24.742;2023-05-17T14:23:21;17.65;;;15.43;;
80227;SDS011;69539;42.138;24.742;2023-05-17T14:25:46;17.35;;;15.65;;
80227;SDS011;69539;42.138;24.742;2023-05-17T14:28:13;18.65;;;16.70;;
80227;SDS011;69539;42.138;24.742;2023-05-17T14:30:41;19.60;;;17.05;;
80227;SDS011;69539;42.138;24.742;2023-05-17T14:33:07;23.25;;;17.25;;
80227;SDS011;69539;42.138;24.742;2023-05-17T14:35:33;19.50;;;16.92;;
80227;SDS011;69539;42.138;24.742;2023-05-17T14:37:59;22.33;;;19.00;;
80227;SDS011;69539;42.138;24.742;2023-05-17T14:40:25;48.25;;;40.08;;
80227;SDS011;69539;42.138;24.742;2023-05-17T14:42:51;98.35;;;79.78;;
80227;SDS011;69539;42.138;24.742;2023-05-17T14:45:17;74.97;;;60.35;;
80227;SDS011;69539;42.138;24.742;2023-05-17T14:47:43;63.15;;;53.08;;
80227;SDS011;69539;42.138;24.742;2023-05-17T14:50:09;58.63;;;49.85;;
80227;SDS011;69539;42.138;24.742;2023-05-17T14:52:35;41.58;;;36.47;;
80227;SDS011;69539;42.138;24.742;2023-05-17T14:55:00;23.23;;;17.73;;
80227;SDS011;69539;42.138;24.742;2023-05-17T14:57:26;19.20;;;17.23;;
80227;SDS011;69539;42.138;24.742;2023-05-17T14:59:52;18.35;;;15.80;;
80227;SDS011;69539;42.138;24.742;2023-05-17T15:02:17;17.35;;;14.40;;
80227;SDS011;69539;42.138;24.742;2023-05-17T15:04:43;15.57;;;13.80;;
80227;SDS011;69539;42.138;24.742;2023-05-17T15:07:09;17.17;;;14.40;;
80227;SDS011;69539;42.138;24.742;2023-05-17T15:09:41;16.70;;;14.23;;
80227;SDS011;69539;42.138;24.742;2023-05-17T15:12:08;18.20;;;15.85;;
80227;SDS011;69539;42.138;24.742;2023-05-17T15:14:35;20.90;;;17.35;;
80227;SDS011;69539;42.138;24.742;2023-05-17T15:17:01;19.40;;;16.73;;
80227;SDS011;69539;42.138;24.742;2023-05-17T15:19:28;18.42;;;16.48;;
80227;SDS011;69539;42.138;24.742;2023-05-17T15:21:54;19.17;;;17.27;;
80227;SDS011;69539;42.138;24.742;2023-05-17T15:24:20;19.35;;;17.30;;
80227;SDS011;69539;42.138;24.742;2023-05-17T15:26:45;19.05;;;16.80;;
80227;SDS011;69539;42.138;24.742;2023-05-17T15:29:11;19.55;;;17.55;;
80227;SDS011;69539;42.138;24.742;2023-05-17T15:31:37;41.30;;;36.88;;
80227;SDS011;69539;42.138;24.742;2023-05-17T15:34:03;115.22;;;92.78;;
80227;SDS011;69539;42.138;24.742;2023-05-17T15:36:28;63.78;;;50.95;;
80227;SDS011;69539;42.138;24.742;2023-05-17T15:38:54;28.48;;;24.65;;
80227;SDS011;69539;42.138;24.742;2023-05-17T15:41:20;21.42;;;18.75;;
80227;SDS011;69539;42.138;24.742;2023-05-17T15:43:51;19.48;;;16.80;;
80227;SDS011;69539;42.138;24.742;2023-05-17T15:46:17;17.65;;;15.73;;
80227;SDS011;69539;42.138;24.742;2023-05-17T15:48:43;17.30;;;15.40;;
80227;SDS011;69539;42.138;24.742;2023-05-17T15:51:09;18.42;;;16.20;;
80227;SDS011;69539;42.138;24.742;2023-05-17T15:53:35;17.40;;;15.38;;
80227;SDS011;69539;42.138;24.742;2023-05-17T15:56:01;21.27;;;18.10;;
80227;SDS011;69539;42.138;24.742;2023-05-17T15:58:27;19.23;;;16.45;;
80227;SDS011;69539;42.138;24.742;2023-05-17T16:00:56;20.55;;;16.25;;
80227;SDS011;69539;42.138;24.742;2023-05-17T16:03:23;18.25;;;15.77;;
80227;SDS011;69539;42.138;24.742;2023-05-17T16:05:48;16.85;;;15.07;;
80227;SDS011;69539;42.138;24.742;2023-05-17T16:08:14;19.35;;;16.85;;
80227;SDS011;69539;42.138;24.742;2023-05-17T16:10:40;24.45;;;21.80;;
80227;SDS011;69539;42.138;24.742;2023-05-17T16:13:06;107.53;;;71.32;;
80227;SDS011;69539;42.138;24.742;2023-05-17T16:15:31;62.88;;;47.42;;
80227;SDS011;69539;42.138;24.742;2023-05-17T16:17:58;30.52;;;24.02;;
80227;SDS011;69539;42.138;24.742;2023-05-17T16:20:23;21.40;;;17.08;;
80227;SDS011;69539;42.138;24.742;2023-05-17T16:22:49;17.20;;;15.38;;
80227;SDS011;69539;42.138;24.742;2023-05-17T16:25:17;48.22;;;39.72;;
80227;SDS011;69539;42.138;24.742;2023-05-17T16:30:00;107.28;;;84.93;;
80227;SDS011;69539;42.138;24.742;2023-05-17T16:32:50;49.20;;;40.17;;
80227;SDS011;69539;42.138;24.742;2023-05-17T16:35:16;59.88;;;48.78;;
80227;SDS011;69539;42.138;24.742;2023-05-17T16:38:00;263.38;;;211.75;;
80227;SDS011;69539;42.138;24.742;2023-05-17T16:40:26;181.70;;;155.23;;
80227;SDS011;69539;42.138;24.742;2023-05-17T16:42:52;63.55;;;55.92;;
80227;SDS011;69539;42.138;24.742;2023-05-17T16:45:18;29.08;;;25.08;;
80227;SDS011;69539;42.138;24.742;2023-05-17T16:47:44;20.20;;;18.10;;
80227;SDS011;69539;42.138;24.742;2023-05-17T16:50:09;19.58;;;17.17;;
80227;SDS011;69539;42.138;24.742;2023-05-17T16:52:37;20.45;;;17.27;;
80227;SDS011;69539;42.138;24.742;2023-05-17T16:55:03;19.35;;;16.35;;
80227;SDS011;69539;42.138;24.742;2023-05-17T16:57:29;19.00;;;15.70;;
80227;SDS011;69539;42.138;24.742;2023-05-17T16:59:55;18.55;;;16.65;;
80227;SDS011;69539;42.138;24.742;2023-05-17T17:02:21;21.63;;;17.77;;
80227;SDS011;69539;42.138;24.742;2023-05-17T17:04:50;34.33;;;30.73;;
80227;SDS011;69539;42.138;24.742;2023-05-17T17:07:16;154.13;;;110.50;;
80227;SDS011;69539;42.138;24.742;2023-05-17T17:09:42;259.95;;;190.77;;
80227;SDS011;69539;42.138;24.742;2023-05-17T17:12:07;752.85;;;482.85;;
80227;SDS011;69539;42.138;24.742;2023-05-17T17:14:33;405.58;;;263.33;;
80227;SDS011;69539;42.138;24.742;2023-05-17T17:16:59;409.05;;;305.35;;
80227;SDS011;69539;42.138;24.742;2023-05-17T17:19:24;177.13;;;122.50;;
80227;SDS011;69539;42.138;24.742;2023-05-17T17:21:50;61.58;;;47.53;;
80227;SDS011;69539;42.138;24.742;2023-05-17T17:24:17;40.75;;;33.08;;
80227;SDS011;69539;42.138;24.742;2023-05-17T17:26:43;33.55;;;25.42;;
80227;SDS011;69539;42.138;24.742;2023-05-17T17:29:09;29.25;;;23.15;;
80227;SDS011;69539;42.138;24.742;2023-05-17T17:31:35;39.10;;;33.03;;
80227;SDS011;69539;42.138;24.742;2023-05-17T17:34:01;169.57;;;118.75;;
80227;SDS011;69539;42.138;24.742;2023-05-17T17:36:26;467.33;;;347.25;;
80227;SDS011;69539;42.138;24.742;2023-05-17T17:38:52;243.95;;;170.02;;
80227;SDS011;69539;42.138;24.742;2023-05-17T17:41:18;124.65;;;87.40;;
80227;SDS011;69539;42.138;24.742;2023-05-17T17:43:43;60.95;;;47.33;;
80227;SDS011;69539;42.138;24.742;2023-05-17T17:46:11;32.87;;;27.37;;
80227;SDS011;69539;42.138;24.742;2023-05-17T17:48:37;28.20;;;23.25;;
80227;SDS011;69539;42.138;24.742;2023-05-17T17:51:02;23.25;;;20.02;;
80227;SDS011;69539;42.138;24.742;2023-05-17T17:53:28;20.92;;;18.13;;
80227;SDS011;69539;42.138;24.742;2023-05-17T17:55:54;21.42;;;17.83;;
80227;SDS011;69539;42.138;24.742;2023-05-17T17:58:20;19.48;;;16.92;;
80227;SDS011;69539;42.138;24.742;2023-05-17T18:00:45;21.48;;;17.35;;
80227;SDS011;69539;42.138;24.742;2023-05-17T18:03:12;38.35;;;32.97;;
80227;SDS011;69539;42.138;24.742;2023-05-17T18:05:38;140.43;;;100.60;;
80227;SDS011;69539;42.138;24.742;2023-05-17T18:08:03;102.47;;;78.00;;
80227;SDS011;69539;42.138;24.742;2023-05-17T18:10:29;211.75;;;146.27;;
80227;SDS011;69539;42.138;24.742;2023-05-17T18:12:55;355.60;;;272.58;;
80227;SDS011;69539;42.138;24.742;2023-05-17T18:15:21;110.53;;;78.25;;
80227;SDS011;69539;42.138;24.742;2023-05-17T18:17:47;45.20;;;35.30;;
80227;SDS011;69539;42.138;24.742;2023-05-17T18:20:15;33.28;;;24.95;;
80227;SDS011;69539;42.138;24.742;2023-05-17T18:22:41;25.08;;;20.17;;
80227;SDS011;69539;42.138;24.742;2023-05-17T18:25:07;23.92;;;20.02;;
80227;SDS011;69539;42.138;24.742;2023-05-17T18:27:33;23.55;;;19.10;;
80227;SDS011;69539;42.138;24.742;2023-05-17T18:30:01;23.30;;;19.42;;
80227;SDS011;69539;42.138;24.742;2023-05-17T18:32:27;24.58;;;20.00;;
80227;SDS011;69539;42.138;24.742;2023-05-17T18:34:52;24.95;;;20.23;;
80227;SDS011;69539;42.138;24.742;2023-05-17T18:37:19;22.63;;;19.45;;
80227;SDS011;69539;42.138;24.742;2023-05-17T18:39:45;22.33;;;19.92;;
80227;SDS011;69539;42.138;24.742;2023-05-17T18:42:10;1056.43;;;791.83;;
80227;SDS011;69539;42.138;24.742;2023-05-17T18:44:36;515.13;;;385.98;;
80227;SDS011;69539;42.138;24.742;2023-05-17T18:47:02;152.48;;;106.32;;
80227;SDS011;69539;42.138;24.742;2023-05-17T18:49:27;102.22;;;74.32;;
80227;SDS011;69539;42.138;24.742;2023-05-17T18:51:53;70.97;;;55.58;;
80227;SDS011;69539;42.138;24.742;2023-05-17T18:54:19;168.23;;;114.15;;
80227;SDS011;69539;42.138;24.742;2023-05-17T18:56:44;75.60;;;57.13;;
80227;SDS011;69539;42.138;24.742;2023-05-17T18:59:10;41.17;;;30.98;;
80227;SDS011;69539;42.138;24.742;2023-05-17T19:01:36;31.77;;;25.25;;
80227;SDS011;69539;42.138;24.742;2023-05-17T19:04:02;28.25;;;23.27;;
80227;SDS011;69539;42.138;24.742;2023-05-17T19:06:27;42.22;;;33.97;;
80227;SDS011;69539;42.138;24.742;2023-05-17T19:08:53;215.15;;;155.77;;
80227;SDS011;69539;42.138;24.742;2023-05-17T19:11:22;206.70;;;159.57;;
80227;SDS011;69539;42.138;24.742;2023-05-17T19:13:48;108.63;;;83.13;;
80227;SDS011;69539;42.138;24.742;2023-05-17T19:16:13;52.05;;;42.72;;
80227;SDS011;69539;42.138;24.742;2023-05-17T19:18:40;38.65;;;31.10;;
80227;SDS011;69539;42.138;24.742;2023-05-17T19:21:06;32.58;;;25.13;;
80227;SDS011;69539;42.138;24.742;2023-05-17T19:23:31;28.90;;;24.23;;
80227;SDS011;69539;42.138;24.742;2023-05-17T19:25:57;32.92;;;25.63;;
80227;SDS011;69539;42.138;24.742;2023-05-17T19:28:23;28.73;;;23.75;;
80227;SDS011;69539;42.138;24.742;2023-05-17T19:30:49;31.23;;;22.95;;
80227;SDS011;69539;42.138;24.742;2023-05-17T19:33:14;27.10;;;23.08;;
80227;SDS011;69539;42.138;24.742;2023-05-17T19:35:40;29.17;;;22.85;;
80227;SDS011;69539;42.138;24.742;2023-05-17T19:38:06;30.05;;;22.83;;
80227;SDS011;69539;42.138;24.742;2023-05-17T19:40:32;895.55;;;602.42;;
80227;SDS011;69539;42.138;24.742;2023-05-17T19:42:58;600.50;;;457.80;;
80227;SDS011;69539;42.138;24.742;2023-05-17T19:45:26;333.77;;;236.50;;
80227;SDS011;69539;42.138;24.742;2023-05-17T19:47:52;130.35;;;93.35;;
80227;SDS011;69539;42.138;24.742;2023-05-17T19:50:18;42.13;;;34.05;;
80227;SDS011;69539;42.138;24.742;2023-05-17T19:52:44;32.30;;;26.75;;
80227;SDS011;69539;42.138;24.742;2023-05-17T19:55:11;27.73;;;23.95;;
80227;SDS011;69539;42.138;24.742;2023-05-17T19:57:39;27.05;;;21.55;;
80227;SDS011;69539;42.138;24.742;2023-05-17T20:00:08;27.15;;;21.35;;
80227;SDS011;69539;42.138;24.742;2023-05-17T20:02:35;27.58;;;22.50;;
80227;SDS011;69539;42.138;24.742;2023-05-17T20:05:00;29.38;;;22.58;;
80227;SDS011;69539;42.138;24.742;2023-05-17T20:07:27;62.15;;;51.03;;
80227;SDS011;69539;42.138;24.742;2023-05-17T20:09:57;131.75;;;95.82;;
80227;SDS011;69539;42.138;24.742;2023-05-17T20:12:23;143.57;;;97.25;;
80227;SDS011;69539;42.138;24.742;2023-05-17T20:14:50;968.55;;;578.55;;
80227;SDS011;69539;42.138;24.742;2023-05-17T20:17:16;529.95;;;362.02;;
80227;SDS011;69539;42.138;24.742;2023-05-17T20:19:42;173.43;;;110.13;;
80227;SDS011;69539;42.138;24.742;2023-05-17T20:22:07;73.30;;;51.60;;
80227;SDS011;69539;42.138;24.742;2023-05-17T20:24:33;40.47;;;32.35;;
80227;SDS011;69539;42.138;24.742;2023-05-17T20:27:02;34.50;;;27.85;;
80227;SDS011;69539;42.138;24.742;2023-05-17T20:29:28;31.65;;;26.65;;
80227;SDS011;69539;42.138;24.742;2023-05-17T20:31:54;30.08;;;26.10;;
80227;SDS011;69539;42.138;24.742;2023-05-17T20:34:20;30.45;;;25.02;;
80227;SDS011;69539;42.138;24.742;2023-05-17T20:36:46;29.35;;;25.35;;
80227;SDS011;69539;42.138;24.742;2023-05-17T20:39:11;32.55;;;26.65;;
80227;SDS011;69539;42.138;24.742;2023-05-17T20:41:39;31.33;;;25.50;;
80227;SDS011;69539;42.138;24.742;2023-05-17T20:44:07;30.45;;;25.02;;
80227;SDS011;69539;42.138;24.742;2023-05-17T20:46:33;29.23;;;23.17;;
80227;SDS011;69539;42.138;24.742;2023-05-17T20:48:59;28.88;;;23.27;;
80227;SDS011;69539;42.138;24.742;2023-05-17T20:51:25;25.67;;;22.35;;
80227;SDS011;69539;42.138;24.742;2023-05-17T20:53:51;29.58;;;23.55;;
80227;SDS011;69539;42.138;24.742;2023-05-17T20:56:17;26.88;;;23.58;;
80227;SDS011;69539;42.138;24.742;2023-05-17T20:58:43;25.65;;;21.90;;
80227;SDS011;69539;42.138;24.742;2023-05-17T21:01:09;26.13;;;22.55;;
80227;SDS011;69539;42.138;24.742;2023-05-17T21:03:35;24.98;;;20.83;;
80227;SDS011;69539;42.138;24.742;2023-05-17T21:06:03;240.48;;;158.48;;
80227;SDS011;69539;42.138;24.742;2023-05-17T21:08:29;665.50;;;534.65;;
80227;SDS011;69539;42.138;24.742;2023-05-17T21:10:56;319.00;;;212.90;;
80227;SDS011;69539;42.138;24.742;2023-05-17T21:13:23;44.72;;;33.60;;
80227;SDS011;69539;42.138;24.742;2023-05-17T21:15:54;150.50;;;115.57;;
80227;SDS011;69539;42.138;24.742;2023-05-17T21:18:20;189.65;;;138.05;;
80227;SDS011;69539;42.138;24.742;2023-05-17T21:20:48;133.48;;;98.80;;
80227;SDS011;69539;42.138;24.742;2023-05-17T21:23:14;129.48;;;96.65;;
80227;SDS011;69539;42.138;24.742;2023-05-17T21:25:40;120.38;;;91.15;;
80227;SDS011;69539;42.138;24.742;2023-05-17T21:28:06;92.18;;;72.20;;
80227;SDS011;69539;42.138;24.742;2023-05-17T21:30:32;62.67;;;48.85;;
80227;SDS011;69539;42.138;24.742;2023-05-17T21:32:58;43.13;;;34.35;;
80227;SDS011;69539;42.138;24.742;2023-05-17T21:35:23;28.92;;;24.02;;
80227;SDS011;69539;42.138;24.742;2023-05-17T21:37:49;22.83;;;17.95;;
80227;SDS011;69539;42.138;24.742;2023-05-17T21:40:15;18.90;;;15.70;;
80227;SDS011;69539;42.138;24.742;2023-05-17T21:42:40;15.07;;;12.25;;
80227;SDS011;69539;42.138;24.742;2023-05-17T21:45:06;13.38;;;10.82;;
80227;SDS011;69539;42.138;24.742;2023-05-17T21:47:32;13.95;;;10.93;;
80227;SDS011;69539;42.138;24.742;2023-05-17T21:50:00;12.75;;;9.90;;
80227;SDS011;69539;42.138;24.742;2023-05-17T21:52:28;12.13;;;9.88;;
80227;SDS011;69539;42.138;24.742;2023-05-17T21:54:54;12.20;;;9.45;;
80227;SDS011;69539;42.138;24.742;2023-05-17T21:57:20;11.35;;;8.85;;
80227;SDS011;69539;42.138;24.742;2023-05-17T21:59:46;11.20;;;8.60;;
80227;SDS011;69539;42.138;24.742;2023-05-17T22:02:12;11.10;;;8.00;;
80227;SDS011;69539;42.138;24.742;2023-05-17T22:04:38;13.32;;;8.30;;
80227;SDS011;69539;42.138;24.742;2023-05-17T22:07:04;11.93;;;7.65;;
80227;SDS011;69539;42.138;24.742;2023-05-17T22:09:30;12.23;;;8.20;;
80227;SDS011;69539;42.138;24.742;2023-05-17T22:11:56;9.77;;;8.07;;
80227;SDS011;69539;42.138;24.742;2023-05-17T22:14:23;9.90;;;7.55;;
80227;SDS011;69539;42.138;24.742;2023-05-17T22:16:59;9.70;;;7.35;;
80227;SDS011;69539;42.138;24.742;2023-05-17T22:19:27;8.98;;;6.88;;
80227;SDS011;69539;42.138;24.742;2023-05-17T22:21:54;9.82;;;6.90;;
80227;SDS011;69539;42.138;24.742;2023-05-17T22:24:19;8.70;;;7.10;;
80227;SDS011;69539;42.138;24.742;2023-05-17T22:26:45;8.88;;;6.95;;
80227;SDS011;69539;42.138;24.742;2023-05-17T22:29:11;8.60;;;6.80;;
80227;SDS011;69539;42.138;24.742;2023-05-17T22:31:36;10.30;;;7.38;;
80227;SDS011;69539;42.138;24.742;2023-05-17T22:34:02;10.43;;;6.85;;
80227;SDS011;69539;42.138;24.742;2023-05-17T22:36:29;7.93;;;6.68;;
80227;SDS011;69539;42.138;24.742;2023-05-17T22:38:56;8.10;;;6.75;;
80227;SDS011;69539;42.138;24.742;2023-05-17T22:41:25;8.98;;;6.55;;
80227;SDS011;69539;42.138;24.742;2023-05-17T22:43:51;8.35;;;6.15;;
80227;SDS011;69539;42.138;24.742;2023-05-17T22:46:17;9.48;;;6.45;;
80227;SDS011;69539;42.138;24.742;2023-05-17T22:48:43;8.68;;;6.57;;
80227;SDS011;69539;42.138;24.742;2023-05-17T22:51:08;9.85;;;6.63;;
80227;SDS011;69539;42.138;24.742;2023-05-17T22:53:36;10.30;;;6.75;;
80227;SDS011;69539;42.138;24.742;2023-05-17T22:56:02;8.75;;;6.38;;
80227;SDS011;69539;42.138;24.742;2023-05-17T22:58:28;9.00;;;6.80;;
80227;SDS011;69539;42.138;24.742;2023-05-17T23:00:53;7.65;;;6.43;;
80227;SDS011;69539;42.138;24.742;2023-05-17T23:03:19;10.93;;;7.00;;
80227;SDS011;69539;42.138;24.742;2023-05-17T23:05:45;8.65;;;6.68;;
80227;SDS011;69539;42.138;24.742;2023-05-17T23:08:11;9.32;;;6.80;;
80227;SDS011;69539;42.138;24.742;2023-05-17T23:10:39;8.90;;;6.57;;
80227;SDS011;69539;42.138;24.742;2023-05-17T23:13:08;8.88;;;6.43;;
80227;SDS011;69539;42.138;24.742;2023-05-17T23:15:35;9.73;;;6.93;;
80227;SDS011;69539;42.138;24.742;2023-05-17T23:18:01;8.70;;;7.00;;
80227;SDS011;69539;42.138;24.742;2023-05-17T23:20:27;10.02;;;7.82;;
80227;SDS011;69539;42.138;24.742;2023-05-17T23:22:53;8.85;;;6.82;;
80227;SDS011;69539;42.138;24.742;2023-05-17T23:25:19;8.90;;;6.88;;
80227;SDS011;69539;42.138;24.742;2023-05-17T23:27:45;9.35;;;7.72;;
80227;SDS011;69539;42.138;24.742;2023-05-17T23:30:14;10.02;;;7.45;;
80227;SDS011;69539;42.138;24.742;2023-05-17T23:32:40;9.52;;;7.78;;
80227;SDS011;69539;42.138;24.742;2023-05-17T23:35:07;11.10;;;7.70;;
80227;SDS011;69539;42.138;24.742;2023-05-17T23:37:34;9.43;;;7.47;;
80227;SDS011;69539;42.138;24.742;2023-05-17T23:40:00;9.35;;;7.07;;
80227;SDS011;69539;42.138;24.742;2023-05-17T23:42:29;9.90;;;7.40;;
80227;SDS011;69539;42.138;24.742;2023-05-17T23:44:55;10.95;;;7.80;;
80227;SDS011;69539;42.138;24.742;2023-05-17T23:47:22;8.98;;;7.55;;
80227;SDS011;69539;42.138;24.742;2023-05-17T23:49:48;9.82;;;7.63;;
80227;SDS011;69539;42.138;24.742;2023-05-17T23:52:14;9.15;;;7.55;;
80227;SDS011;69539;42.138;24.742;2023-05-17T23:54:42;8.95;;;7.47;;
80227;SDS011;69539;42.138;24.742;2023-05-17T23:57:08;9.95;;;7.55;;
80227;SDS011;69539;42.138;24.742;2023-05-17T23:59:34;10.20;;;7.95;;
